Annville, Kentucky
Current Conditions -  °F | °C
As of 4:53 PM on Sunday 23 Nov 2014 (Local Time) from KLOZ Reporting Station
Light Rain Light Rain  
Wind Chill: 15°   Ceiling: 10000
Heat Index: 15°   Visibility: 10mi
Dew Point: 11°   Wind: 13mph
Humidity: 75%   Direction: 140°SE
Pressure: 29.59"   Gusts: 20mph
Location:  37.32°N, 83.97°W
Report Text: KLOZ 232153Z AUTO 14011G17KT 10SM -RA BKN100 OVC120 15/11 A2959 RMK AO2 PRESFR SLP017 P0002 T01500106
Loading
Personal Weather Stations






























Interactive Weather Map New forecast layout! Learn more

10-Day Weather Forecast

Advertisements
Track Severe Weather on mobile